createdAt,value
2022-08-26T00:02:12.044Z,18.18
2022-08-26T00:04:43.216Z,18.13
2022-08-26T00:07:10.701Z,18.08
2022-08-26T00:09:40.071Z,18.03
2022-08-26T00:12:09.351Z,17.98
2022-08-26T00:14:42.981Z,17.91
2022-08-26T00:17:10.716Z,17.85
2022-08-26T00:19:38.285Z,17.74
2022-08-26T00:22:05.966Z,17.69
2022-08-26T00:24:33.278Z,17.65
2022-08-26T00:27:00.524Z,17.58
2022-08-26T00:29:28.168Z,17.49
2022-08-26T00:31:59.177Z,17.44
2022-08-26T00:34:26.313Z,17.37
2022-08-26T00:36:54.144Z,17.33
2022-08-26T00:39:22.731Z,17.29
2022-08-26T00:41:50.017Z,17.26
2022-08-26T00:44:19.019Z,17.23
2022-08-26T00:46:55.545Z,17.18
2022-08-26T00:49:43.943Z,17.16
2022-08-26T00:52:19.999Z,17.11
2022-08-26T00:55:00.411Z,17.05
2022-08-26T00:57:28.199Z,17.01
2022-08-26T00:59:58.980Z,17.00
2022-08-26T01:02:27.206Z,16.94
2022-08-26T01:05:00.477Z,16.91
2022-08-26T01:07:31.342Z,16.83
2022-08-26T01:10:06.532Z,16.80
2022-08-26T01:12:40.336Z,16.79
2022-08-26T01:15:13.174Z,16.76
2022-08-26T01:17:44.278Z,16.68
2022-08-26T01:21:07.662Z,16.64
2022-08-26T01:23:40.126Z,16.61
2022-08-26T01:26:19.954Z,16.58
2022-08-26T01:28:51.697Z,16.60
2022-08-26T01:31:24.270Z,16.58
2022-08-26T01:34:02.109Z,16.56
2022-08-26T01:36:32.819Z,16.57
2022-08-26T01:39:00.013Z,16.56
2022-08-26T01:41:29.088Z,16.51
2022-08-26T01:43:56.825Z,16.45
2022-08-26T01:46:26.817Z,16.45
2022-08-26T01:48:57.194Z,16.43
2022-08-26T01:51:25.717Z,16.39
2022-08-26T01:53:53.965Z,16.39
2022-08-26T01:56:23.277Z,16.38
2022-08-26T01:58:55.536Z,16.37
2022-08-26T02:01:29.230Z,16.34
2022-08-26T02:04:20.565Z,16.33
2022-08-26T02:06:48.347Z,16.33
2022-08-26T02:09:18.662Z,16.32
2022-08-26T02:11:47.514Z,16.33
2022-08-26T02:14:32.323Z,16.32
2022-08-26T02:17:03.397Z,16.27
2022-08-26T02:19:38.966Z,16.19
2022-08-26T02:22:13.688Z,16.11
2022-08-26T02:24:56.043Z,16.10
2022-08-26T02:27:34.545Z,16.03
2022-08-26T02:30:18.000Z,16.04
2022-08-26T02:32:46.019Z,16.00
2022-08-26T02:35:20.325Z,15.95
2022-08-26T02:37:49.333Z,15.91
2022-08-26T02:40:21.840Z,15.91
2022-08-26T02:42:49.877Z,15.90
2022-08-26T02:45:23.052Z,15.91
2022-08-26T02:47:51.655Z,15.92
2022-08-26T02:50:20.436Z,15.91
2022-08-26T02:52:48.093Z,15.90
2022-08-26T02:55:15.759Z,15.91
2022-08-26T02:57:43.426Z,15.90
2022-08-26T03:00:14.670Z,15.89
2022-08-26T03:02:42.148Z,15.87
2022-08-26T03:05:11.093Z,15.86
2022-08-26T03:07:39.287Z,15.89
2022-08-26T03:10:08.749Z,15.89
2022-08-26T03:12:36.757Z,15.91
2022-08-26T03:15:15.871Z,15.90
2022-08-26T03:17:47.761Z,15.90
2022-08-26T03:20:17.313Z,15.90
2022-08-26T03:22:45.492Z,15.91
2022-08-26T03:25:15.993Z,15.93
2022-08-26T03:27:43.421Z,15.92
2022-08-26T03:30:31.022Z,15.92
2022-08-26T03:32:58.409Z,15.91
2022-08-26T03:35:26.063Z,15.89
2022-08-26T03:37:53.761Z,15.89
2022-08-26T03:40:22.349Z,15.90
2022-08-26T03:42:50.588Z,15.90
2022-08-26T03:45:19.193Z,15.91
2022-08-26T03:47:47.751Z,15.90
2022-08-26T03:50:22.705Z,15.90
2022-08-26T03:52:52.651Z,15.90
2022-08-26T03:55:23.773Z,15.90
2022-08-26T03:57:52.638Z,15.92
2022-08-26T04:00:20.501Z,15.97
2022-08-26T04:02:50.728Z,16.03
2022-08-26T04:05:22.855Z,16.12
2022-08-26T04:07:51.878Z,16.18
2022-08-26T04:10:28.537Z,16.25
2022-08-26T04:12:59.825Z,16.30
2022-08-26T04:15:27.662Z,16.37
2022-08-26T04:17:55.909Z,16.40
2022-08-26T04:20:26.494Z,16.44
2022-08-26T04:22:53.922Z,16.51
2022-08-26T04:25:24.615Z,16.56
2022-08-26T04:27:52.481Z,16.63
2022-08-26T04:30:20.314Z,16.67
2022-08-26T04:32:49.792Z,16.70
2022-08-26T04:35:18.060Z,16.74
2022-08-26T04:37:45.878Z,16.80
2022-08-26T04:40:33.325Z,16.88
2022-08-26T04:43:15.970Z,16.98
2022-08-26T04:46:04.071Z,17.04
2022-08-26T04:49:11.154Z,17.08
2022-08-26T04:53:21.676Z,17.28
2022-08-26T04:56:12.664Z,17.37
2022-08-26T04:58:40.856Z,17.43
2022-08-26T05:01:08.830Z,17.47
2022-08-26T05:03:36.488Z,17.51
2022-08-26T05:06:05.271Z,17.58
2022-08-26T05:08:32.661Z,17.66
2022-08-26T05:11:07.564Z,17.76
2022-08-26T05:13:38.708Z,17.87
2022-08-26T05:16:11.675Z,17.97
2022-08-26T05:18:40.923Z,18.07
2022-08-26T05:21:24.256Z,18.18
2022-08-26T05:23:54.280Z,18.28
2022-08-26T05:26:24.594Z,18.37
2022-08-26T05:28:54.965Z,18.46
2022-08-26T05:31:27.828Z,18.57
2022-08-26T05:33:57.062Z,18.66
2022-08-26T05:36:27.754Z,18.74
2022-08-26T05:38:57.610Z,18.85
2022-08-26T05:41:34.171Z,18.97
2022-08-26T05:44:05.649Z,19.09
2022-08-26T05:46:34.417Z,19.21
2022-08-26T05:49:03.566Z,19.31
2022-08-26T05:51:31.011Z,19.43
2022-08-26T05:54:01.495Z,19.55
2022-08-26T05:56:30.800Z,19.68
2022-08-26T05:59:02.348Z,19.80
2022-08-26T06:01:35.461Z,19.96
2022-08-26T06:04:03.919Z,20.07
2022-08-26T06:06:34.645Z,20.18
2022-08-26T06:09:03.930Z,20.30
2022-08-26T06:11:32.515Z,20.43
2022-08-26T06:14:04.403Z,20.55
2022-08-26T06:16:37.770Z,20.64
2022-08-26T06:19:10.917Z,20.72
2022-08-26T06:21:41.513Z,20.84
2022-08-26T06:24:31.315Z,20.91
2022-08-26T06:27:05.668Z,21.01
2022-08-26T06:29:36.156Z,21.09
2022-08-26T06:32:06.308Z,21.15
2022-08-26T06:34:33.713Z,21.21
2022-08-26T06:37:02.394Z,21.30
2022-08-26T06:39:31.385Z,21.39
2022-08-26T06:42:00.572Z,21.46
2022-08-26T06:44:28.079Z,21.55
2022-08-26T06:46:55.504Z,21.62
2022-08-26T06:49:27.222Z,21.69
2022-08-26T06:51:59.161Z,21.75
2022-08-26T06:54:29.870Z,21.84
2022-08-26T06:56:57.845Z,21.93
2022-08-26T06:59:25.611Z,22.01
2022-08-26T07:01:54.055Z,22.11
2022-08-26T07:04:22.331Z,22.18
2022-08-26T07:06:52.808Z,22.26
2022-08-26T07:09:23.141Z,22.35
2022-08-26T07:11:51.468Z,22.41
2022-08-26T07:14:21.236Z,22.49
2022-08-26T07:16:50.547Z,22.57
2022-08-26T07:19:31.210Z,22.65
2022-08-26T07:22:03.627Z,22.70
2022-08-26T07:24:35.367Z,22.79
2022-08-26T07:27:08.767Z,22.89
2022-08-26T07:29:38.555Z,22.96
2022-08-26T07:32:07.410Z,23.05
2022-08-26T07:34:35.036Z,23.15
2022-08-26T07:37:02.428Z,23.28
2022-08-26T07:39:31.506Z,23.42
2022-08-26T07:42:01.624Z,23.54
2022-08-26T07:44:37.059Z,23.60
2022-08-26T07:47:16.479Z,23.68
2022-08-26T07:49:56.085Z,23.81
2022-08-26T07:52:27.554Z,23.88
2022-08-26T07:54:57.560Z,23.96
2022-08-26T07:57:26.284Z,24.01
2022-08-26T07:59:55.222Z,24.06
2022-08-26T08:02:24.952Z,24.15
2022-08-26T08:04:57.345Z,24.28
2022-08-26T08:07:44.620Z,24.40
2022-08-26T08:10:21.290Z,24.50
2022-08-26T08:12:50.139Z,24.60
2022-08-26T08:15:20.646Z,24.70
2022-08-26T08:17:47.978Z,24.78
2022-08-26T08:20:18.859Z,24.86
2022-08-26T08:22:47.193Z,25.01
2022-08-26T08:25:15.722Z,25.14
2022-08-26T08:27:48.134Z,25.21
2022-08-26T08:30:22.902Z,25.31
2022-08-26T08:32:52.282Z,25.41
2022-08-26T08:35:22.017Z,25.52
2022-08-26T08:37:53.767Z,25.62
2022-08-26T08:40:24.479Z,25.71
2022-08-26T08:43:15.327Z,25.78
2022-08-26T08:45:54.602Z,25.85
2022-08-26T08:48:28.020Z,25.89
2022-08-26T08:51:04.224Z,26.05
2022-08-26T08:53:44.269Z,26.14
2022-08-26T08:56:39.125Z,26.20
2022-08-26T08:59:32.450Z,26.27
2022-08-26T09:02:18.775Z,26.33
2022-08-26T09:05:15.324Z,26.39
2022-08-26T09:08:02.072Z,26.47
2022-08-26T09:10:43.604Z,26.51
2022-08-26T09:13:25.124Z,26.62
2022-08-26T09:16:08.449Z,26.68
2022-08-26T09:18:59.011Z,26.72
2022-08-26T09:21:26.701Z,26.78
2022-08-26T09:23:57.024Z,26.84
2022-08-26T09:26:29.230Z,26.91
2022-08-26T09:29:08.568Z,26.96
2022-08-26T09:31:41.152Z,27.03
2022-08-26T09:34:24.967Z,27.08
2022-08-26T09:36:58.239Z,27.14
2022-08-26T09:39:37.684Z,27.21
2022-08-26T09:42:12.523Z,27.31
2022-08-26T09:45:07.101Z,27.44
2022-08-26T09:47:43.357Z,27.54
2022-08-26T09:50:37.773Z,27.61
2022-08-26T09:53:12.889Z,27.64
2022-08-26T09:55:47.366Z,27.67
2022-08-26T09:58:35.291Z,27.72
2022-08-26T10:01:10.331Z,27.81
2022-08-26T10:03:39.117Z,27.87
2022-08-26T10:06:21.321Z,27.96
2022-08-26T10:09:08.885Z,28.07
2022-08-26T10:11:48.000Z,28.14
2022-08-26T10:14:32.511Z,28.24
2022-08-26T10:17:11.398Z,28.32
2022-08-26T10:19:56.838Z,28.42
2022-08-26T10:22:37.213Z,28.55
2022-08-26T10:25:09.351Z,28.70
2022-08-26T10:27:53.466Z,28.79
2022-08-26T10:30:30.822Z,28.86
2022-08-26T10:33:07.915Z,28.95
2022-08-26T10:35:46.367Z,29.06
2022-08-26T10:38:19.855Z,29.14
2022-08-26T10:40:52.929Z,29.24
2022-08-26T10:43:25.542Z,29.37
2022-08-26T10:45:59.458Z,29.49
2022-08-26T10:48:56.860Z,29.60
2022-08-26T10:51:35.943Z,29.73
2022-08-26T10:54:28.707Z,29.78
2022-08-26T10:57:11.842Z,29.85
2022-08-26T11:00:18.709Z,29.97
2022-08-26T11:02:54.563Z,30.06
2022-08-26T11:05:30.396Z,30.08
2022-08-26T11:08:58.084Z,30.18
2022-08-26T11:11:39.434Z,30.36
2022-08-26T11:14:29.104Z,30.44
2022-08-26T11:16:59.911Z,30.43
2022-08-26T11:20:07.426Z,30.39
2022-08-26T11:23:01.735Z,30.46
2022-08-26T11:26:35.759Z,30.52
2022-08-26T11:30:13.614Z,30.61
2022-08-26T11:33:00.872Z,30.68
2022-08-26T11:35:37.535Z,30.67
2022-08-26T11:38:29.093Z,30.71
2022-08-26T11:41:11.179Z,30.80
2022-08-26T11:43:43.569Z,30.83
2022-08-26T11:46:12.544Z,30.83
2022-08-26T11:48:43.202Z,30.83
2022-08-26T11:51:24.115Z,30.92
2022-08-26T11:53:51.563Z,31.06
2022-08-26T11:56:32.608Z,31.12
2022-08-26T11:59:07.361Z,31.16
2022-08-26T12:01:41.720Z,31.26
2022-08-26T12:04:17.598Z,31.27
2022-08-26T12:06:52.458Z,31.28
2022-08-26T12:09:36.689Z,31.30
2022-08-26T12:12:37.370Z,31.36
2022-08-26T12:15:21.392Z,31.45
2022-08-26T12:17:54.399Z,31.40
2022-08-26T12:20:53.416Z,31.39
2022-08-26T12:23:36.412Z,31.36
2022-08-26T12:26:12.139Z,31.37
2022-08-26T12:29:01.786Z,31.43
2022-08-26T12:31:47.418Z,31.37
2022-08-26T12:34:17.707Z,31.32
2022-08-26T12:39:37.276Z,31.46
2022-08-26T12:42:16.331Z,31.47
2022-08-26T12:44:53.343Z,31.52
2022-08-26T12:47:43.203Z,31.66
2022-08-26T12:50:20.559Z,31.65
2022-08-26T12:53:08.331Z,31.61
2022-08-26T12:55:52.369Z,31.56
2022-08-26T12:58:35.630Z,31.68
2022-08-26T13:01:08.483Z,31.86
2022-08-26T13:03:39.866Z,32.00
2022-08-26T13:06:30.818Z,32.07
2022-08-26T13:09:07.187Z,32.09
2022-08-26T13:11:55.388Z,32.09
2022-08-26T13:14:24.604Z,32.17
2022-08-26T13:16:53.008Z,32.16
2022-08-26T13:19:23.582Z,32.19
2022-08-26T13:21:54.326Z,32.18
2022-08-26T13:24:44.418Z,32.20
2022-08-26T13:27:14.493Z,32.29
2022-08-26T13:29:41.698Z,32.40
2022-08-26T13:32:09.185Z,32.42
2022-08-26T13:34:37.199Z,32.43
2022-08-26T13:37:04.969Z,32.46
2022-08-26T13:39:32.696Z,32.37
2022-08-26T13:41:59.933Z,32.36
2022-08-26T13:44:27.284Z,32.26
2022-08-26T13:46:54.426Z,32.23
2022-08-26T13:49:22.155Z,32.23
2022-08-26T13:51:49.282Z,32.21
2022-08-26T13:54:16.501Z,32.21
2022-08-26T13:56:43.918Z,32.20
2022-08-26T13:59:11.123Z,32.20
2022-08-26T14:01:39.859Z,32.21
2022-08-26T14:04:07.788Z,32.19
2022-08-26T14:06:35.166Z,32.17
2022-08-26T14:09:02.667Z,32.12
2022-08-26T14:11:29.951Z,32.13
2022-08-26T14:14:08.439Z,32.09
2022-08-26T14:16:37.679Z,32.06
2022-08-26T14:19:24.763Z,32.04
2022-08-26T14:21:52.411Z,31.96
2022-08-26T14:24:19.604Z,31.96
2022-08-26T14:26:48.025Z,31.97
2022-08-26T14:29:16.703Z,31.86
2022-08-26T14:31:44.956Z,31.83
2022-08-26T14:34:12.898Z,31.83
2022-08-26T14:36:40.031Z,31.82
2022-08-26T14:39:11.180Z,31.73
2022-08-26T14:41:54.443Z,31.65
2022-08-26T14:44:29.047Z,31.59
2022-08-26T14:47:02.299Z,31.53
2022-08-26T14:49:30.906Z,31.49
2022-08-26T14:51:58.532Z,31.44
2022-08-26T14:54:25.882Z,31.40
2022-08-26T14:56:58.040Z,31.35
2022-08-26T14:59:29.290Z,31.28
2022-08-26T15:01:57.649Z,31.20
2022-08-26T15:04:27.668Z,31.15
2022-08-26T15:07:01.329Z,31.12
2022-08-26T15:09:40.774Z,31.07
2022-08-26T15:12:12.546Z,31.01
2022-08-26T15:14:42.515Z,30.94
2022-08-26T15:17:17.059Z,30.88
2022-08-26T15:19:49.836Z,30.83
2022-08-26T15:22:29.816Z,30.78
2022-08-26T15:25:14.844Z,30.71
2022-08-26T15:27:50.285Z,30.64
2022-08-26T15:30:19.808Z,30.56
2022-08-26T15:32:49.520Z,30.48
2022-08-26T15:35:18.674Z,30.41
2022-08-26T15:37:45.881Z,30.34
2022-08-26T15:40:13.341Z,30.29
2022-08-26T15:42:40.643Z,30.27
2022-08-26T15:45:08.188Z,30.25
2022-08-26T15:47:35.548Z,30.21
2022-08-26T15:50:25.008Z,30.18
2022-08-26T15:52:52.330Z,30.14
2022-08-26T15:55:20.244Z,30.08
2022-08-26T15:57:51.136Z,30.04
2022-08-26T16:00:20.223Z,30.00
2022-08-26T16:02:47.977Z,29.97
2022-08-26T16:05:15.419Z,29.93
2022-08-26T16:07:42.727Z,29.87
2022-08-26T16:10:10.403Z,29.82
2022-08-26T16:12:38.024Z,29.77
2022-08-26T16:15:06.761Z,29.75
2022-08-26T16:17:34.107Z,29.70
2022-08-26T16:20:02.139Z,29.65
2022-08-26T16:22:30.951Z,29.60
2022-08-26T16:25:00.700Z,29.56
2022-08-26T16:27:47.987Z,29.53
2022-08-26T16:30:41.997Z,29.47
2022-08-26T16:33:36.834Z,29.41
2022-08-26T16:36:11.034Z,29.34
2022-08-26T16:38:41.869Z,29.28
2022-08-26T16:41:09.842Z,29.23
2022-08-26T16:43:37.463Z,29.16
2022-08-26T16:46:17.378Z,29.10
2022-08-26T16:48:45.470Z,29.02
2022-08-26T16:51:15.846Z,28.95
2022-08-26T16:53:44.089Z,28.90
2022-08-26T16:56:20.450Z,28.84
2022-08-26T16:58:48.110Z,28.79
2022-08-26T17:01:16.372Z,28.74
2022-08-26T17:03:43.836Z,28.68
2022-08-26T17:06:11.769Z,28.62
2022-08-26T17:08:41.190Z,28.55
2022-08-26T17:11:09.684Z,28.48
2022-08-26T17:13:44.239Z,28.40
2022-08-26T17:16:14.625Z,28.31
2022-08-26T17:18:41.897Z,28.19
2022-08-26T17:21:12.583Z,28.09
2022-08-26T17:23:41.586Z,28.00
2022-08-26T17:26:11.341Z,27.87
2022-08-26T17:28:39.555Z,27.76
2022-08-26T17:31:10.462Z,27.65
2022-08-26T17:33:39.477Z,27.56
2022-08-26T17:36:08.887Z,27.46
2022-08-26T17:38:38.132Z,27.37
2022-08-26T17:41:13.912Z,27.29
2022-08-26T17:43:41.728Z,27.21
2022-08-26T17:46:11.126Z,27.12
2022-08-26T17:48:40.460Z,27.04
2022-08-26T17:51:16.453Z,26.97
2022-08-26T17:53:44.530Z,26.90
2022-08-26T17:56:15.100Z,26.85
2022-08-26T17:58:50.957Z,26.80
2022-08-26T18:01:21.671Z,26.76
2022-08-26T18:04:00.479Z,26.72
2022-08-26T18:06:29.997Z,26.67
2022-08-26T18:08:57.971Z,26.64
2022-08-26T18:11:26.517Z,26.60
2022-08-26T18:13:53.865Z,26.54
2022-08-26T18:16:21.163Z,26.49
2022-08-26T18:18:52.810Z,26.44
2022-08-26T18:21:25.775Z,26.39
2022-08-26T18:23:54.041Z,26.33
2022-08-26T18:26:25.899Z,26.24
2022-08-26T18:28:53.407Z,26.15
2022-08-26T18:31:21.298Z,26.06
2022-08-26T18:33:48.645Z,25.96
2022-08-26T18:36:28.997Z,25.86
2022-08-26T18:38:57.325Z,25.78
2022-08-26T18:41:34.357Z,25.69
2022-08-26T18:44:01.537Z,25.62
2022-08-26T18:46:28.924Z,25.54
2022-08-26T18:48:57.160Z,25.45
2022-08-26T18:51:29.134Z,25.38
2022-08-26T18:53:57.217Z,25.37
2022-08-26T18:56:25.606Z,25.33
2022-08-26T18:58:54.931Z,25.28
2022-08-26T19:01:26.629Z,25.22
2022-08-26T19:04:01.868Z,25.19
2022-08-26T19:06:32.425Z,25.12
2022-08-26T19:09:00.384Z,25.00
2022-08-26T19:11:32.476Z,24.88
2022-08-26T19:14:09.880Z,24.76
2022-08-26T19:16:38.453Z,24.64
2022-08-26T19:19:06.294Z,24.51
2022-08-26T19:21:35.865Z,24.38
2022-08-26T19:24:08.881Z,24.28
2022-08-26T19:26:39.156Z,24.18
2022-08-26T19:29:12.690Z,24.11
2022-08-26T19:31:41.791Z,24.05
2022-08-26T19:34:18.333Z,23.99
2022-08-26T19:36:52.819Z,23.95
2022-08-26T19:39:20.788Z,23.93
2022-08-26T19:41:48.450Z,23.91
2022-08-26T19:44:38.585Z,23.84
2022-08-26T19:47:08.736Z,23.78
2022-08-26T19:49:37.006Z,23.70
2022-08-26T19:52:08.527Z,23.62
2022-08-26T19:54:36.498Z,23.56
2022-08-26T19:57:04.654Z,23.53
2022-08-26T19:59:35.701Z,23.51
2022-08-26T20:02:14.339Z,23.50
2022-08-26T20:04:45.326Z,23.48
2022-08-26T20:07:18.130Z,23.44
2022-08-26T20:09:47.762Z,23.39
2022-08-26T20:12:16.951Z,23.36
2022-08-26T20:14:45.042Z,23.32
2022-08-26T20:17:12.796Z,23.26
2022-08-26T20:19:58.843Z,23.27
2022-08-26T20:22:26.585Z,23.23
2022-08-26T20:24:54.625Z,23.17
2022-08-26T20:27:27.244Z,23.11
2022-08-26T20:30:08.730Z,23.05
2022-08-26T20:32:40.433Z,22.98
2022-08-26T20:35:12.185Z,22.93
2022-08-26T20:37:40.480Z,22.86
2022-08-26T20:40:10.828Z,22.80
2022-08-26T20:42:38.301Z,22.75
2022-08-26T20:45:10.254Z,22.66
2022-08-26T20:47:37.927Z,22.58
2022-08-26T20:50:05.727Z,22.53
2022-08-26T20:52:33.022Z,22.50
2022-08-26T20:55:00.390Z,22.49
2022-08-26T20:57:28.148Z,22.48
2022-08-26T20:59:55.842Z,22.45
2022-08-26T21:02:23.782Z,22.43
2022-08-26T21:04:53.206Z,22.40
2022-08-26T21:07:20.502Z,22.33
2022-08-26T21:09:49.650Z,22.25
2022-08-26T21:12:18.999Z,22.20
2022-08-26T21:14:49.509Z,22.15
2022-08-26T21:17:17.030Z,22.10
2022-08-26T21:19:44.449Z,22.09
2022-08-26T21:22:11.846Z,22.08
2022-08-26T21:24:39.252Z,22.07
2022-08-26T21:27:06.720Z,22.05
2022-08-26T21:29:35.686Z,22.01
2022-08-26T21:32:03.784Z,21.97
2022-08-26T21:34:31.180Z,21.92
2022-08-26T21:36:58.530Z,21.86
2022-08-26T21:39:25.921Z,21.81
2022-08-26T21:41:53.816Z,21.77
2022-08-26T21:44:21.569Z,21.72
2022-08-26T21:46:51.047Z,21.68
2022-08-26T21:49:18.309Z,21.64
2022-08-26T21:51:48.077Z,21.63
2022-08-26T21:54:17.632Z,21.63
2022-08-26T21:56:46.692Z,21.57
2022-08-26T21:59:18.375Z,21.51
2022-08-26T22:01:47.848Z,21.47
2022-08-26T22:04:16.427Z,21.46
2022-08-26T22:06:47.668Z,21.43
2022-08-26T22:09:19.973Z,21.39
2022-08-26T22:11:47.580Z,21.35
2022-08-26T22:14:16.678Z,21.32
2022-08-26T22:16:50.170Z,21.29
2022-08-26T22:19:20.425Z,21.25
2022-08-26T22:21:53.304Z,21.21
2022-08-26T22:24:23.414Z,21.18
2022-08-26T22:26:51.590Z,21.15
2022-08-26T22:29:19.173Z,21.16
2022-08-26T22:31:46.565Z,21.16
2022-08-26T22:34:16.840Z,21.15
2022-08-26T22:36:47.534Z,21.14
2022-08-26T22:39:19.568Z,21.14
2022-08-26T22:41:48.070Z,21.13
2022-08-26T22:44:17.740Z,21.11
2022-08-26T22:46:45.724Z,21.10
2022-08-26T22:49:15.901Z,21.07
2022-08-26T22:51:44.999Z,21.01
2022-08-26T22:54:13.894Z,20.98
2022-08-26T22:56:41.513Z,20.95
2022-08-26T22:59:11.335Z,20.92
2022-08-26T23:01:41.885Z,20.87
2022-08-26T23:04:10.571Z,20.82
2022-08-26T23:06:40.596Z,20.75
2022-08-26T23:09:09.162Z,20.70
2022-08-26T23:11:39.424Z,20.64
2022-08-26T23:14:10.749Z,20.59
2022-08-26T23:16:41.180Z,20.55
2022-08-26T23:19:10.883Z,20.51
2022-08-26T23:21:38.899Z,20.47
2022-08-26T23:24:07.759Z,20.45
2022-08-26T23:26:35.781Z,20.44
2022-08-26T23:29:05.826Z,20.43
2022-08-26T23:31:33.650Z,20.43
2022-08-26T23:34:19.752Z,20.41
2022-08-26T23:36:47.906Z,20.39
2022-08-26T23:39:15.496Z,20.36
2022-08-26T23:41:42.846Z,20.34
2022-08-26T23:44:11.868Z,20.31
2022-08-26T23:46:39.155Z,20.27
2022-08-26T23:49:06.532Z,20.23
2022-08-26T23:51:52.493Z,20.19
2022-08-26T23:54:20.160Z,20.13
2022-08-26T23:56:47.894Z,20.11
2022-08-26T23:59:15.155Z,20.06
